Time;durP1;ratioP1;P1;durP2;ratioP2;P2;SDS_P1;SDS_P2;PMS_P1;PMS_P2;Temp;Humidity;BMP_temperature;BMP_pressure;BME280_temperature;BME280_humidity;BME280_pressure;Samples;Min_cycle;Max_cycle;Signal;HPM_P1;HPM_P2
2021/12/30 00:00:52;;;;;;;25.77;6.03;;;14.40;99.90;;;;;;4994235;28;20216;-77
2021/12/30 00:03:18;;;;;;;26.95;5.75;;;14.40;99.90;;;;;;4994896;28;20034;-76
2021/12/30 00:05:44;;;;;;;25.83;5.57;;;14.40;99.90;;;;;;4993679;28;20149;-74
2021/12/30 00:08:10;;;;;;;23.13;5.05;;;14.40;99.90;;;;;;4993996;28;20522;-75
2021/12/30 00:10:37;;;;;;;22.52;5.97;;;14.40;99.90;;;;;;4994077;28;20026;-75
2021/12/30 00:13:04;;;;;;;29.13;6.20;;;14.40;99.90;;;;;;4994098;28;20491;-76
2021/12/30 00:15:30;;;;;;;27.70;6.32;;;14.40;99.90;;;;;;4992716;28;20018;-76
2021/12/30 00:17:56;;;;;;;23.35;5.90;;;14.40;99.90;;;;;;4993947;28;20030;-75
2021/12/30 00:20:22;;;;;;;24.02;5.07;;;14.40;99.90;;;;;;4993930;28;20029;-76
2021/12/30 00:22:49;;;;;;;25.75;5.30;;;14.40;99.90;;;;;;4993856;28;20034;-74
2021/12/30 00:25:15;;;;;;;24.98;6.25;;;14.40;99.90;;;;;;4993792;28;20386;-74
2021/12/30 00:27:41;;;;;;;24.60;5.75;;;14.40;99.90;;;;;;4993643;28;20026;-75
2021/12/30 00:30:09;;;;;;;24.90;5.53;;;14.40;99.90;;;;;;4994075;28;20022;-75
2021/12/30 00:32:36;;;;;;;25.73;5.22;;;14.40;99.90;;;;;;4994229;28;20448;-75
2021/12/30 00:35:02;;;;;;;24.85;5.55;;;14.40;99.90;;;;;;4993671;28;20015;-74
2021/12/30 00:37:28;;;;;;;29.40;5.95;;;14.40;99.90;;;;;;4993936;28;20022;-76
2021/12/30 00:39:54;;;;;;;18.35;5.15;;;14.40;99.90;;;;;;4993586;28;20037;-75
2021/12/30 00:42:19;;;;;;;17.60;5.07;;;14.40;99.90;;;;;;4993706;28;20026;-78
2021/12/30 00:44:45;;;;;;;32.95;6.60;;;14.40;99.90;;;;;;4949674;28;1279897;-74
2021/12/30 00:47:11;;;;;;;24.05;5.57;;;14.30;99.90;;;;;;4994155;28;20026;-78
2021/12/30 00:49:37;;;;;;;21.25;5.28;;;14.30;99.90;;;;;;4994230;28;20026;-75
2021/12/30 00:52:03;;;;;;;23.27;5.30;;;14.30;99.90;;;;;;4994190;28;20067;-75
2021/12/30 00:54:28;;;;;;;21.00;5.60;;;14.30;99.90;;;;;;4994152;28;20022;-76
2021/12/30 00:56:54;;;;;;;23.67;4.78;;;14.30;99.90;;;;;;4994332;28;20050;-77
2021/12/30 00:59:20;;;;;;;16.67;4.75;;;14.30;99.90;;;;;;4994094;28;20105;-74
2021/12/30 01:01:46;;;;;;;23.40;5.38;;;14.30;99.90;;;;;;4994065;28;20030;-77
2021/12/30 01:04:11;;;;;;;30.08;5.10;;;14.30;99.90;;;;;;4992820;28;20026;-74
2021/12/30 01:06:37;;;;;;;22.73;5.60;;;14.30;99.90;;;;;;4993898;28;20044;-76
2021/12/30 01:09:04;;;;;;;25.42;5.78;;;14.30;99.90;;;;;;4993904;28;20109;-78
2021/12/30 01:11:30;;;;;;;27.02;5.75;;;14.30;99.90;;;;;;4993923;28;20030;-77
2021/12/30 01:14:10;;;;;;;19.70;5.00;;;14.30;99.90;;;;;;4994399;28;20113;-77
2021/12/30 01:16:42;;;;;;;24.67;4.88;;;14.30;99.90;;;;;;4993261;28;20065;-74
2021/12/30 01:19:51;;;;;;;21.98;5.38;;;14.30;99.90;;;;;;4994131;28;20114;-75
2021/12/30 01:21:56;;;;;;;24.15;5.28;;;14.30;99.90;;;;;;4990763;28;20042;-76
2021/12/30 01:24:22;;;;;;;22.38;4.80;;;14.30;99.90;;;;;;4994065;28;20029;-76
2021/12/30 01:26:48;;;;;;;17.33;4.45;;;14.30;99.90;;;;;;4993942;28;20065;-75
2021/12/30 01:29:14;;;;;;;18.63;4.28;;;14.30;99.90;;;;;;4994065;28;20065;-77
2021/12/30 01:31:39;;;;;;;16.92;3.65;;;14.30;99.90;;;;;;4994054;28;20030;-75
2021/12/30 01:34:05;;;;;;;22.50;4.32;;;14.20;99.90;;;;;;4993744;28;20026;-78
2021/12/30 01:36:31;;;;;;;19.83;4.50;;;14.20;99.90;;;;;;4993983;28;20058;-76
2021/12/30 01:38:57;;;;;;;20.80;4.88;;;14.20;99.90;;;;;;4993710;28;20022;-74
2021/12/30 01:41:23;;;;;;;22.27;6.07;;;14.20;99.90;;;;;;4993665;28;20532;-74
2021/12/30 01:43:50;;;;;;;25.40;4.82;;;14.20;99.90;;;;;;4993615;28;20126;-77
2021/12/30 01:46:16;;;;;;;23.50;5.18;;;14.20;99.90;;;;;;4993736;28;20098;-73
2021/12/30 01:48:42;;;;;;;21.05;4.75;;;14.20;99.90;;;;;;4992391;28;20027;-73
2021/12/30 01:51:08;;;;;;;23.85;5.07;;;14.10;99.90;;;;;;4993867;28;20445;-76
2021/12/30 01:53:34;;;;;;;22.77;5.30;;;14.10;99.90;;;;;;4993590;28;20043;-76
2021/12/30 01:56:00;;;;;;;21.83;5.63;;;14.10;99.90;;;;;;4993577;28;20390;-78
2021/12/30 01:58:26;;;;;;;14.15;4.15;;;14.10;99.90;;;;;;4993526;28;20034;-73
2021/12/30 02:00:53;;;;;;;21.63;4.78;;;14.00;99.90;;;;;;4993604;28;20065;-77
2021/12/30 02:03:20;;;;;;;21.27;4.97;;;13.90;99.90;;;;;;4993475;28;20394;-76
2021/12/30 02:05:47;;;;;;;22.35;5.57;;;13.80;99.90;;;;;;4993440;28;20053;-72
2021/12/30 02:08:15;;;;;;;23.52;5.95;;;13.80;99.90;;;;;;4993393;28;20030;-77
2021/12/30 02:10:44;;;;;;;24.50;7.93;;;13.80;99.90;;;;;;4993447;28;20402;-74
2021/12/30 02:13:10;;;;;;;26.83;6.50;;;13.80;99.90;;;;;;4993322;28;20072;-72
2021/12/30 02:15:36;;;;;;;19.95;6.38;;;13.80;99.90;;;;;;4993701;28;20130;-74
2021/12/30 02:18:02;;;;;;;20.15;6.65;;;13.80;99.90;;;;;;4994234;28;20386;-78
2021/12/30 02:20:52;;;;;;;26.13;10.13;;;13.70;99.90;;;;;;4993621;28;20030;-76
2021/12/30 02:23:19;;;;;;;26.33;7.53;;;13.70;99.90;;;;;;4993649;28;20105;-74
2021/12/30 02:25:46;;;;;;;22.40;5.68;;;13.70;99.90;;;;;;4993314;28;20029;-76
2021/12/30 02:28:15;;;;;;;22.98;6.05;;;13.70;99.90;;;;;;4994568;28;20026;-76
2021/12/30 02:30:42;;;;;;;22.02;4.80;;;13.60;99.90;;;;;;4996637;28;20022;-75
2021/12/30 02:33:08;;;;;;;24.85;5.03;;;13.60;99.90;;;;;;4996721;28;20093;-74
2021/12/30 02:35:34;;;;;;;24.27;4.75;;;13.60;99.90;;;;;;4996643;28;20505;-74
2021/12/30 02:38:00;;;;;;;20.05;4.72;;;13.60;99.90;;;;;;4996594;28;20022;-78
2021/12/30 02:40:29;;;;;;;23.83;4.75;;;13.60;99.90;;;;;;4996456;28;20035;-74
2021/12/30 02:42:54;;;;;;;16.30;3.83;;;13.60;99.90;;;;;;4997284;28;20066;-73
2021/12/30 02:45:20;;;;;;;18.05;3.88;;;13.60;99.90;;;;;;4996125;28;20047;-76
2021/12/30 02:47:46;;;;;;;15.77;3.80;;;13.60;99.90;;;;;;4996618;28;20356;-76
2021/12/30 02:50:12;;;;;;;19.65;3.92;;;13.60;99.90;;;;;;4996450;28;20025;-74
2021/12/30 02:52:38;;;;;;;24.13;4.28;;;13.70;99.90;;;;;;4996427;28;20130;-73
2021/12/30 02:55:04;;;;;;;19.58;3.97;;;13.70;99.90;;;;;;4996328;28;20030;-75
2021/12/30 02:57:30;;;;;;;17.42;4.78;;;13.70;99.90;;;;;;4996480;28;20077;-77
2021/12/30 02:59:55;;;;;;;19.65;4.47;;;13.80;99.90;;;;;;4994981;28;20390;-75
2021/12/30 03:02:21;;;;;;;14.68;3.65;;;13.80;99.90;;;;;;4996215;28;20030;-77
2021/12/30 03:04:46;;;;;;;15.60;3.78;;;13.80;99.90;;;;;;4996125;28;20098;-73
2021/12/30 03:07:12;;;;;;;15.82;3.75;;;13.80;99.90;;;;;;4996010;28;20030;-76
2021/12/30 03:09:38;;;;;;;16.60;3.40;;;13.80;99.90;;;;;;4996033;28;20026;-75
2021/12/30 03:12:04;;;;;;;14.50;3.70;;;13.80;99.90;;;;;;4994703;28;20085;-75
2021/12/30 03:14:30;;;;;;;18.50;4.05;;;13.90;99.90;;;;;;4995981;28;20022;-77
2021/12/30 03:16:55;;;;;;;17.42;3.92;;;13.90;99.90;;;;;;4996164;28;20034;-75
2021/12/30 03:19:21;;;;;;;21.75;4.13;;;13.90;99.90;;;;;;4996093;28;20030;-76
2021/12/30 03:21:47;;;;;;;13.07;3.22;;;14.00;99.90;;;;;;4995629;28;20422;-72
2021/12/30 03:24:12;;;;;;;14.70;3.40;;;14.00;99.90;;;;;;4996042;28;20026;-77
2021/12/30 03:26:38;;;;;;;14.77;4.25;;;14.00;99.90;;;;;;4995959;28;20037;-76
2021/12/30 03:29:05;;;;;;;21.77;4.32;;;14.00;99.90;;;;;;4995675;28;20101;-74
2021/12/30 03:31:31;;;;;;;16.00;3.50;;;14.00;99.90;;;;;;4994387;28;20138;-76
2021/12/30 03:33:57;;;;;;;16.92;3.30;;;14.10;99.90;;;;;;4995606;28;20014;-76
2021/12/30 03:36:25;;;;;;;18.52;3.65;;;14.10;99.90;;;;;;4994277;28;20023;-73
2021/12/30 03:38:53;;;;;;;19.55;4.03;;;14.00;99.90;;;;;;4995100;28;20125;-75
2021/12/30 03:41:22;;;;;;;19.75;3.67;;;14.10;99.90;;;;;;4994944;28;20030;-74
2021/12/30 03:43:48;;;;;;;18.40;4.35;;;14.10;99.90;;;;;;4995485;28;20112;-77
2021/12/30 03:46:14;;;;;;;12.77;2.92;;;14.10;99.90;;;;;;4995739;28;20190;-74
2021/12/30 03:48:43;;;;;;;19.75;3.72;;;14.10;99.90;;;;;;4995257;28;20026;-75
2021/12/30 03:51:20;;;;;;;17.65;4.00;;;14.10;99.90;;;;;;4995535;28;20023;-76
2021/12/30 03:53:49;;;;;;;13.48;3.40;;;14.10;99.90;;;;;;4995317;28;20022;-75
2021/12/30 03:56:17;;;;;;;16.67;3.88;;;14.10;99.90;;;;;;4995422;28;20030;-73
2021/12/30 03:58:44;;;;;;;16.02;4.55;;;14.10;99.90;;;;;;4994167;28;20109;-75
2021/12/30 04:01:14;;;;;;;18.02;3.63;;;14.10;99.90;;;;;;4995411;28;20030;-77
2021/12/30 04:03:40;;;;;;;16.55;3.22;;;14.20;99.90;;;;;;4995605;28;20049;-75
2021/12/30 04:06:06;;;;;;;14.13;3.58;;;14.20;99.90;;;;;;4995290;28;20030;-76
2021/12/30 04:08:33;;;;;;;13.50;3.20;;;14.20;99.90;;;;;;4995170;28;20034;-77
2021/12/30 04:10:59;;;;;;;14.45;3.40;;;14.20;99.90;;;;;;4993620;28;20476;-74
2021/12/30 04:13:25;;;;;;;16.58;3.78;;;14.20;99.90;;;;;;4994829;28;20513;-76
2021/12/30 04:15:52;;;;;;;14.07;3.83;;;14.20;99.90;;;;;;4994745;28;20105;-78
2021/12/30 04:18:17;;;;;;;16.52;3.60;;;14.20;99.90;;;;;;4994763;28;20034;-78
2021/12/30 04:20:45;;;;;;;21.00;4.38;;;14.20;99.90;;;;;;4993444;28;20024;-79
2021/12/30 04:23:11;;;;;;;15.98;3.75;;;14.20;99.90;;;;;;4994946;28;20030;-77
2021/12/30 04:25:36;;;;;;;24.95;4.05;;;14.20;99.90;;;;;;4994929;28;20433;-77
2021/12/30 04:28:02;;;;;;;18.23;3.78;;;14.20;99.90;;;;;;4994494;28;20088;-77
2021/12/30 04:30:28;;;;;;;15.07;3.88;;;14.30;99.90;;;;;;4994512;28;20023;-74
2021/12/30 04:32:54;;;;;;;23.15;4.00;;;14.30;99.90;;;;;;4993277;28;20026;-76
2021/12/30 04:35:19;;;;;;;16.13;4.18;;;14.30;99.90;;;;;;4994487;28;20165;-74
2021/12/30 04:37:45;;;;;;;14.43;3.20;;;14.30;99.90;;;;;;4994677;28;20034;-75
2021/12/30 04:40:12;;;;;;;18.63;3.88;;;14.30;99.90;;;;;;4994536;28;20045;-76
2021/12/30 04:42:38;;;;;;;15.00;3.20;;;14.20;99.90;;;;;;4993063;28;20065;-77
2021/12/30 04:45:05;;;;;;;16.88;3.40;;;14.20;99.90;;;;;;4993946;28;20062;-74
2021/12/30 04:47:31;;;;;;;15.70;3.13;;;14.30;99.90;;;;;;4994078;28;20022;-76
2021/12/30 04:49:57;;;;;;;18.48;3.28;;;14.30;99.90;;;;;;4994206;28;20438;-75
2021/12/30 04:52:24;;;;;;;23.52;4.93;;;14.30;99.90;;;;;;4993945;28;20026;-75
2021/12/30 04:54:50;;;;;;;22.50;4.05;;;14.30;99.90;;;;;;4994722;28;20033;-77
2021/12/30 04:57:16;;;;;;;14.70;3.05;;;14.30;99.90;;;;;;4994660;28;20027;-78
2021/12/30 04:59:42;;;;;;;15.35;3.83;;;14.30;99.90;;;;;;4994124;28;20029;-77
2021/12/30 05:02:08;;;;;;;14.00;3.20;;;14.30;99.90;;;;;;4994284;28;20026;-76
2021/12/30 05:04:34;;;;;;;25.40;4.22;;;14.30;99.90;;;;;;4994292;28;20026;-76
2021/12/30 05:06:59;;;;;;;18.35;3.60;;;14.30;99.90;;;;;;4993932;28;20097;-76
2021/12/30 05:09:25;;;;;;;13.55;3.25;;;14.30;99.90;;;;;;4993935;28;20026;-77
2021/12/30 05:11:51;;;;;;;13.82;2.85;;;14.30;99.90;;;;;;4993949;28;20468;-74
2021/12/30 05:14:17;;;;;;;19.90;5.35;;;14.30;99.90;;;;;;4993903;28;20023;-76
2021/12/30 05:16:44;;;;;;;21.27;6.70;;;14.30;99.90;;;;;;4994204;28;20022;-75
2021/12/30 05:19:09;;;;;;;19.40;3.50;;;14.30;99.90;;;;;;4993880;28;20463;-76
2021/12/30 05:21:35;;;;;;;13.82;4.00;;;14.30;99.90;;;;;;4993846;28;20048;-73
2021/12/30 05:24:01;;;;;;;17.85;6.45;;;14.30;99.90;;;;;;4993861;28;20131;-77
2021/12/30 05:26:28;;;;;;;14.32;4.22;;;14.30;99.90;;;;;;4993751;28;20391;-74
2021/12/30 05:28:58;;;;;;;17.60;4.15;;;14.30;99.90;;;;;;4993802;28;20021;-75
2021/12/30 05:31:24;;;;;;;14.80;3.33;;;14.30;99.90;;;;;;4993894;28;20027;-75
2021/12/30 05:33:50;;;;;;;10.73;4.05;;;14.30;99.90;;;;;;4993759;28;20035;-76
2021/12/30 05:36:16;;;;;;;12.00;3.03;;;14.20;99.90;;;;;;4993764;28;20014;-78
2021/12/30 05:38:42;;;;;;;14.23;2.97;;;14.20;99.90;;;;;;4993719;28;20037;-73
2021/12/30 05:41:09;;;;;;;17.15;5.10;;;14.20;99.90;;;;;;4993622;28;20054;-74
2021/12/30 05:43:35;;;;;;;27.70;15.75;;;14.20;99.90;;;;;;4993677;28;20077;-76
2021/12/30 05:46:00;;;;;;;20.73;4.05;;;14.20;99.90;;;;;;4994223;28;20022;-75
2021/12/30 05:48:26;;;;;;;15.00;3.20;;;14.20;99.90;;;;;;4993537;28;20442;-79
2021/12/30 05:50:54;;;;;;;14.35;4.85;;;14.20;99.90;;;;;;4993602;28;20030;-75
2021/12/30 05:53:20;;;;;;;20.10;3.90;;;14.20;99.90;;;;;;4993539;28;20023;-74
2021/12/30 05:55:45;;;;;;;11.43;2.78;;;14.20;99.90;;;;;;4993847;28;20023;-74
2021/12/30 05:58:11;;;;;;;9.77;2.65;;;14.20;99.90;;;;;;4993850;28;20034;-75
2021/12/30 06:00:37;;;;;;;21.67;3.35;;;14.20;99.90;;;;;;4993852;28;20062;-75
2021/12/30 06:03:02;;;;;;;15.75;3.35;;;14.20;99.90;;;;;;4994679;28;20041;-78
2021/12/30 06:05:28;;;;;;;15.90;3.22;;;14.20;99.90;;;;;;4997264;28;20037;-73
2021/12/30 06:07:54;;;;;;;17.25;3.90;;;14.20;99.90;;;;;;4997157;28;20042;-75
2021/12/30 06:10:20;;;;;;;13.18;3.40;;;14.20;99.90;;;;;;4997394;28;20101;-79
2021/12/30 06:12:46;;;;;;;12.52;2.97;;;14.20;99.90;;;;;;4995830;28;20037;-74
2021/12/30 06:15:13;;;;;;;12.77;3.20;;;14.20;99.90;;;;;;4997082;28;20457;-76
2021/12/30 06:17:40;;;;;;;11.98;2.97;;;14.10;99.90;;;;;;4997017;28;20505;-76
2021/12/30 06:20:08;;;;;;;16.02;3.65;;;14.10;99.90;;;;;;4995729;28;20038;-76
2021/12/30 06:22:34;;;;;;;17.05;3.78;;;14.20;99.90;;;;;;4997493;28;20526;-73
2021/12/30 06:24:59;;;;;;;15.68;3.17;;;14.10;99.90;;;;;;4996846;28;20038;-73
2021/12/30 06:27:25;;;;;;;15.00;3.47;;;14.10;99.90;;;;;;4997033;28;20030;-76
2021/12/30 06:29:51;;;;;;;14.55;2.85;;;14.00;99.90;;;;;;4996806;28;20030;-77
2021/12/30 06:32:16;;;;;;;14.43;3.70;;;14.10;99.90;;;;;;4996748;28;20027;-77
2021/12/30 06:34:42;;;;;;;14.30;3.65;;;14.00;99.90;;;;;;4996734;28;20019;-77
2021/12/30 06:37:08;;;;;;;27.30;3.47;;;14.00;99.90;;;;;;4996643;28;20395;-77
2021/12/30 06:39:34;;;;;;;10.43;3.45;;;14.00;99.90;;;;;;4997145;28;20027;-75
2021/12/30 06:41:59;;;;;;;14.35;3.70;;;13.90;99.90;;;;;;4996772;28;20113;-78
2021/12/30 06:44:25;;;;;;;15.70;3.88;;;13.90;99.90;;;;;;4996501;28;20085;-76
2021/12/30 06:46:57;;;;;;;15.65;3.72;;;14.00;99.90;;;;;;4996934;28;20034;-72
2021/12/30 06:49:24;;;;;;;15.15;4.40;;;13.90;99.90;;;;;;4996953;28;20026;-75
2021/12/30 06:51:51;;;;;;;14.93;4.18;;;13.90;99.90;;;;;;4996678;28;20050;-75
2021/12/30 06:54:16;;;;;;;13.10;3.03;;;14.00;99.90;;;;;;4996405;28;20019;-77
2021/12/30 06:56:42;;;;;;;12.68;3.65;;;13.90;99.90;;;;;;4995021;28;20029;-75
2021/12/30 06:59:14;;;;;;;16.02;3.30;;;13.90;99.90;;;;;;4996785;28;20015;-75
2021/12/30 07:01:40;;;;;;;12.98;3.40;;;13.90;99.90;;;;;;4996540;28;20027;-73
2021/12/30 07:04:06;;;;;;;17.73;3.20;;;13.90;99.90;;;;;;4996237;28;20018;-77
2021/12/30 07:06:31;;;;;;;11.45;2.88;;;13.90;99.90;;;;;;4996326;28;20042;-76
2021/12/30 07:08:57;;;;;;;14.55;2.90;;;13.90;99.90;;;;;;4996360;28;20382;-76
2021/12/30 07:11:23;;;;;;;11.20;3.72;;;13.90;99.90;;;;;;4996022;28;20503;-77
2021/12/30 07:13:48;;;;;;;15.57;3.60;;;13.90;99.90;;;;;;4996166;28;20072;-76
2021/12/30 07:16:14;;;;;;;14.73;3.53;;;14.00;99.90;;;;;;4996227;28;20045;-78
2021/12/30 07:18:39;;;;;;;15.35;3.47;;;14.00;99.90;;;;;;4995926;28;20106;-76
2021/12/30 07:21:05;;;;;;;14.82;3.55;;;14.00;99.90;;;;;;4995862;28;20109;-74
2021/12/30 07:23:31;;;;;;;12.20;3.53;;;14.00;99.90;;;;;;4995848;28;20026;-76
2021/12/30 07:25:56;;;;;;;11.45;2.55;;;14.00;99.90;;;;;;4996334;28;20026;-74
2021/12/30 07:28:22;;;;;;;11.32;3.67;;;14.00;99.90;;;;;;4995665;28;20102;-76
2021/12/30 07:30:48;;;;;;;11.57;3.15;;;14.00;99.90;;;;;;4995690;28;20486;-77
2021/12/30 07:33:13;;;;;;;9.00;2.40;;;14.10;99.90;;;;;;4995698;28;20072;-73
2021/12/30 07:35:39;;;;;;;12.55;3.42;;;14.10;99.90;;;;;;4995585;28;20387;-78
2021/12/30 07:38:05;;;;;;;12.77;3.10;;;14.10;99.90;;;;;;4995557;28;20450;-77
2021/12/30 07:40:31;;;;;;;17.05;6.32;;;14.10;99.90;;;;;;4994147;28;20108;-75
2021/12/30 07:42:57;;;;;;;13.25;3.65;;;14.10;99.90;;;;;;4995718;28;20023;-75
2021/12/30 07:45:23;;;;;;;17.88;5.78;;;14.10;99.90;;;;;;4995132;28;20122;-77
2021/12/30 07:47:50;;;;;;;12.43;3.92;;;14.00;99.90;;;;;;4995333;28;20027;-74
2021/12/30 07:50:16;;;;;;;9.25;3.05;;;14.10;99.90;;;;;;4994162;28;20498;-76
2021/12/30 07:52:42;;;;;;;11.88;2.72;;;14.10;99.90;;;;;;4995245;28;20105;-79
2021/12/30 07:55:09;;;;;;;11.85;3.35;;;14.20;99.90;;;;;;4995489;28;20022;-75
2021/12/30 07:57:35;;;;;;;12.35;3.95;;;14.20;99.90;;;;;;4995178;28;20125;-78
2021/12/30 08:00:05;;;;;;;10.13;2.88;;;14.10;99.90;;;;;;4995133;28;20057;-74
2021/12/30 08:02:30;;;;;;;14.82;3.35;;;14.10;99.90;;;;;;4995039;28;20367;-76
2021/12/30 08:04:56;;;;;;;17.98;3.45;;;14.10;99.90;;;;;;4994970;28;20038;-77
2021/12/30 08:07:24;;;;;;;9.05;2.90;;;14.10;99.90;;;;;;4994923;28;20022;-74
2021/12/30 08:09:50;;;;;;;10.90;3.10;;;14.20;99.90;;;;;;4993635;28;20026;-75
2021/12/30 08:12:16;;;;;;;8.75;2.83;;;14.20;99.90;;;;;;4994907;28;20023;-75
2021/12/30 08:14:41;;;;;;;13.35;3.60;;;14.20;99.90;;;;;;4994790;28;20027;-74
2021/12/30 08:17:07;;;;;;;11.52;3.50;;;14.20;99.90;;;;;;4994782;28;20027;-76
2021/12/30 08:19:33;;;;;;;17.70;10.35;;;14.20;99.90;;;;;;4994748;28;20022;-75
2021/12/30 08:21:59;;;;;;;11.88;3.88;;;14.20;99.90;;;;;;4994747;28;20033;-76
2021/12/30 08:24:24;;;;;;;9.73;2.47;;;14.20;99.90;;;;;;4994646;28;20042;-75
2021/12/30 08:26:51;;;;;;;7.85;3.28;;;14.30;99.90;;;;;;4994086;28;20031;-75
2021/12/30 08:29:17;;;;;;;10.27;4.05;;;14.30;99.90;;;;;;4994871;28;20109;-77
2021/12/30 08:31:42;;;;;;;9.98;3.28;;;14.30;99.90;;;;;;4994816;28;20057;-75
2021/12/30 08:34:08;;;;;;;12.40;3.53;;;14.30;99.90;;;;;;4994487;28;20030;-77
2021/12/30 08:36:33;;;;;;;10.73;2.53;;;14.30;99.90;;;;;;4994728;28;20022;-74
2021/12/30 08:38:59;;;;;;;14.13;3.83;;;14.20;99.90;;;;;;4994674;28;20368;-74
2021/12/30 08:41:26;;;;;;;14.85;3.40;;;14.20;99.90;;;;;;4994331;28;20483;-77
2021/12/30 08:43:51;;;;;;;11.75;3.70;;;14.20;99.90;;;;;;4994171;28;20097;-75
2021/12/30 08:46:17;;;;;;;11.82;3.15;;;14.20;99.90;;;;;;4994573;28;20545;-75
2021/12/30 08:48:43;;;;;;;14.88;6.35;;;14.30;99.90;;;;;;4994157;28;20034;-75
2021/12/30 08:51:09;;;;;;;12.48;3.58;;;14.30;99.90;;;;;;4994750;28;20385;-78
2021/12/30 08:53:40;;;;;;;14.15;5.43;;;14.20;99.90;;;;;;4994178;28;20026;-74
2021/12/30 08:56:11;;;;;;;12.98;3.10;;;14.30;99.90;;;;;;4994513;28;20088;-76
2021/12/30 08:58:38;;;;;;;14.45;2.60;;;14.30;99.90;;;;;;4994195;28;20026;-75
2021/12/30 09:01:04;;;;;;;12.05;3.35;;;14.30;99.90;;;;;;4994661;28;20026;-76
2021/12/30 09:03:29;;;;;;;18.40;3.58;;;14.30;99.90;;;;;;4994315;28;20033;-75
2021/12/30 09:05:55;;;;;;;9.32;3.33;;;14.30;99.90;;;;;;4994325;28;20027;-76
2021/12/30 09:08:21;;;;;;;11.18;2.90;;;14.30;99.90;;;;;;4994252;28;20065;-74
2021/12/30 09:10:49;;;;;;;9.40;2.40;;;14.40;99.90;;;;;;4994226;28;20029;-74
2021/12/30 09:13:15;;;;;;;10.27;2.55;;;14.40;99.90;;;;;;4994237;28;20049;-76
2021/12/30 09:15:41;;;;;;;13.88;3.45;;;14.40;99.90;;;;;;4993902;28;20101;-76
2021/12/30 09:18:07;;;;;;;15.60;3.45;;;14.50;99.90;;;;;;4993998;28;20051;-74
2021/12/30 09:20:35;;;;;;;7.85;3.28;;;14.50;99.90;;;;;;4992622;28;20033;-73
2021/12/30 09:23:03;;;;;;;11.43;2.47;;;14.50;99.90;;;;;;4992639;28;20116;-77
2021/12/30 09:25:30;;;;;;;10.43;2.75;;;14.50;99.90;;;;;;4994120;28;20026;-75
2021/12/30 09:27:57;;;;;;;12.52;2.20;;;14.50;99.90;;;;;;4993714;28;20037;-75
2021/12/30 09:30:25;;;;;;;9.10;2.55;;;14.50;99.90;;;;;;4994116;28;20093;-76
2021/12/30 09:32:54;;;;;;;6.85;1.85;;;14.50;99.90;;;;;;4994062;28;20040;-74
2021/12/30 09:35:20;;;;;;;7.13;2.50;;;14.50;99.90;;;;;;4993789;28;20014;-75
2021/12/30 09:37:46;;;;;;;8.13;3.20;;;14.50;99.90;;;;;;4995031;28;20023;-76
2021/12/30 09:40:14;;;;;;;7.50;2.20;;;14.50;99.90;;;;;;4997685;28;20077;-75
2021/12/30 09:42:47;;;;;;;5.95;3.13;;;14.50;99.90;;;;;;4997652;28;20513;-76
2021/12/30 09:45:13;;;;;;;9.20;2.63;;;14.50;99.90;;;;;;4997588;28;20414;-76
2021/12/30 09:47:50;;;;;;;8.80;2.47;;;14.60;99.90;;;;;;4997549;28;20034;-74
2021/12/30 09:50:17;;;;;;;6.45;1.58;;;14.60;99.90;;;;;;4997874;28;20065;-75
2021/12/30 09:52:43;;;;;;;4.90;1.65;;;14.60;99.90;;;;;;4998056;28;20029;-76
2021/12/30 09:55:09;;;;;;;8.43;2.50;;;14.60;99.90;;;;;;4997459;28;20025;-73
2021/12/30 09:57:36;;;;;;;8.68;3.38;;;14.60;99.90;;;;;;4997673;28;20030;-78
2021/12/30 10:00:03;;;;;;;16.35;9.27;;;14.60;99.90;;;;;;4997407;28;20034;-78
2021/12/30 10:02:29;;;;;;;7.32;3.88;;;14.60;99.90;;;;;;4997522;28;20079;-76
2021/12/30 10:05:10;;;;;;;7.75;2.10;;;14.60;99.90;;;;;;4997264;28;20038;-75
2021/12/30 10:07:39;;;;;;;9.95;2.58;;;14.60;99.90;;;;;;4997778;28;20026;-72
2021/12/30 10:10:32;;;;;;;7.22;3.72;;;14.60;99.90;;;;;;4997428;28;20097;-75
2021/12/30 10:12:59;;;;;;;5.97;2.30;;;14.70;99.90;;;;;;4997409;28;20418;-76
2021/12/30 10:15:28;;;;;;;7.88;2.55;;;14.60;99.90;;;;;;4997067;28;20018;-74
2021/12/30 10:17:59;;;;;;;5.13;2.10;;;14.70;99.90;;;;;;4997353;28;20030;-76
2021/12/30 10:20:28;;;;;;;5.78;1.80;;;14.80;99.90;;;;;;4997283;28;20376;-74
2021/12/30 10:22:56;;;;;;;4.38;2.08;;;14.80;99.90;;;;;;4997003;28;20027;-75
2021/12/30 10:25:27;;;;;;;4.18;1.70;;;14.90;99.90;;;;;;4997216;28;20022;-75
2021/12/30 10:27:53;;;;;;;3.85;1.48;;;14.90;99.90;;;;;;4996851;28;20022;-77
2021/12/30 10:30:49;;;;;;;12.57;5.68;;;15.00;99.90;;;;;;4996804;28;20026;-75
2021/12/30 10:33:19;;;;;;;6.28;2.50;;;15.10;99.90;;;;;;4988321;28;20045;-73
2021/12/30 10:35:45;;;;;;;10.18;6.65;;;15.10;99.90;;;;;;4997008;28;20478;-76
2021/12/30 10:38:11;;;;;;;8.13;4.78;;;15.10;99.90;;;;;;4996638;28;20052;-75
2021/12/30 10:40:40;;;;;;;5.85;2.20;;;15.20;99.90;;;;;;4996763;28;20030;-74
2021/12/30 10:43:12;;;;;;;8.02;4.60;;;15.20;99.90;;;;;;4996608;28;20026;-77
2021/12/30 10:45:37;;;;;;;7.38;4.82;;;15.30;99.90;;;;;;4996134;28;20051;-78
2021/12/30 10:48:03;;;;;;;6.18;3.30;;;15.30;99.90;;;;;;4995010;28;20125;-73
2021/12/30 10:50:29;;;;;;;8.15;3.15;;;15.30;99.90;;;;;;4996458;28;20022;-78
2021/12/30 10:52:56;;;;;;;7.25;3.55;;;15.40;99.90;;;;;;4996404;28;20030;-73
2021/12/30 10:55:33;;;;;;;7.10;3.20;;;15.40;99.90;;;;;;4996674;28;20022;-79
2021/12/30 10:57:59;;;;;;;9.15;4.10;;;15.40;99.90;;;;;;4996578;28;20046;-74
2021/12/30 11:00:34;;;;;;;7.97;3.05;;;15.40;99.90;;;;;;4996596;28;20097;-74
2021/12/30 11:03:24;;;;;;;7.65;3.28;;;15.40;99.90;;;;;;4996202;28;20487;-78
2021/12/30 11:06:17;;;;;;;10.05;3.63;;;15.40;99.90;;;;;;4996616;28;20026;-79
2021/12/30 11:08:43;;;;;;;8.93;5.15;;;15.40;99.90;;;;;;4996839;28;20425;-78
2021/12/30 11:11:26;;;;;;;10.40;5.28;;;15.30;99.90;;;;;;4996263;28;20081;-76
2021/12/30 11:14:10;;;;;;;10.85;4.68;;;15.40;99.90;;;;;;4996835;28;20044;-76
2021/12/30 11:16:59;;;;;;;5.50;2.70;;;15.40;99.90;;;;;;4996874;28;20022;-76
2021/12/30 11:19:26;;;;;;;11.15;5.00;;;15.40;99.90;;;;;;4994775;28;20042;-75
2021/12/30 11:21:53;;;;;;;9.98;4.38;;;15.40;99.90;;;;;;4995937;28;20053;-78
2021/12/30 11:24:32;;;;;;;12.25;5.63;;;15.50;99.90;;;;;;4996069;28;20541;-77
2021/12/30 11:27:03;;;;;;;10.48;3.05;;;15.50;99.90;;;;;;4996894;28;20030;-75
2021/12/30 11:29:30;;;;;;;11.55;4.70;;;15.50;99.90;;;;;;4996573;28;20040;-76
2021/12/30 11:32:07;;;;;;;8.35;2.90;;;15.40;99.90;;;;;;4994660;28;20073;-75
2021/12/30 11:34:34;;;;;;;7.97;3.20;;;15.50;99.90;;;;;;4994442;28;20430;-73
2021/12/30 11:37:00;;;;;;;7.18;2.53;;;15.50;99.90;;;;;;4995627;28;20046;-75
2021/12/30 11:39:26;;;;;;;7.53;2.85;;;15.50;99.90;;;;;;4995530;28;20432;-75
2021/12/30 11:42:00;;;;;;;6.07;2.53;;;15.50;99.90;;;;;;4995430;28;20022;-78
2021/12/30 11:44:45;;;;;;;7.63;2.42;;;15.50;99.90;;;;;;4995569;28;20050;-74
2021/12/30 11:47:36;;;;;;;6.97;3.30;;;15.50;99.90;;;;;;4995708;28;20022;-75
2021/12/30 11:50:15;;;;;;;;;;;15.50;99.90;;;;;;4996333;28;20022;-76
2021/12/30 11:53:00;;;;;;;9.55;3.70;;;15.50;99.90;;;;;;4993855;28;19909;-73
2021/12/30 11:55:57;;;;;;;7.63;1.80;;;15.50;99.90;;;;;;4995816;28;20018;-77
2021/12/30 11:58:34;;;;;;;7.35;2.00;;;15.50;99.90;;;;;;4995247;28;20081;-75
2021/12/30 12:01:12;;;;;;;9.07;2.20;;;15.50;99.90;;;;;;4994951;28;20566;-75
2021/12/30 12:03:44;;;;;;;10.30;2.33;;;15.50;99.90;;;;;;4993799;28;20034;-79
2021/12/30 12:06:28;;;;;;;7.35;2.05;;;15.50;99.90;;;;;;4995377;28;20022;-75
2021/12/30 12:09:19;;;;;;;6.05;2.20;;;15.60;99.90;;;;;;4995429;28;20463;-75
2021/12/30 12:11:51;;;;;;;9.23;2.58;;;15.50;99.90;;;;;;4990077;28;20058;-77
2021/12/30 12:14:21;;;;;;;7.85;2.95;;;15.50;99.90;;;;;;4995187;28;20061;-77
2021/12/30 12:17:10;;;;;;;5.75;2.35;;;15.50;99.90;;;;;;4995136;28;20487;-78
2021/12/30 12:19:52;;;;;;;6.65;1.88;;;15.50;99.90;;;;;;4995107;28;20026;-75
2021/12/30 12:22:17;;;;;;;6.45;2.47;;;15.60;99.90;;;;;;4995083;28;20391;-74
2021/12/30 12:24:44;;;;;;;3.55;2.10;;;15.60;99.90;;;;;;4994702;28;20030;-73
2021/12/30 12:27:30;;;;;;;7.13;1.95;;;15.60;99.90;;;;;;4994606;28;20073;-77
2021/12/30 12:29:57;;;;;;;5.60;2.22;;;15.60;99.90;;;;;;4994684;28;20062;-75
2021/12/30 12:32:34;;;;;;;6.30;1.90;;;15.60;99.90;;;;;;4994599;28;20053;-75
2021/12/30 12:35:05;;;;;;;3.38;1.58;;;15.80;99.90;;;;;;4995040;28;20029;-76
2021/12/30 12:37:36;;;;;;;4.97;1.73;;;15.80;99.90;;;;;;4994763;28;20038;-78
2021/12/30 12:40:11;;;;;;;5.90;1.52;;;15.90;99.90;;;;;;4994936;28;20034;-76
2021/12/30 12:42:48;;;;;;;7.90;1.67;;;16.00;99.90;;;;;;4994672;28;20391;-76
2021/12/30 12:45:25;;;;;;;5.03;2.00;;;16.10;99.90;;;;;;4994026;28;20054;-74